Time;durP1;ratioP1;P1;durP2;ratioP2;P2;SDS_P1;SDS_P2;PMS_P1;PMS_P2;Temp;Humidity;BMP_temperature;BMP_pressure;BME280_temperature;BME280_humidity;BME280_pressure;Samples;Min_cycle;Max_cycle;Signal;HPM_P1;HPM_P2
2022/12/10 00:00:38;;;;;;;30.40;15.15;;;-3276.50;98.70;;;;;;5026301;28;20108;-72
2022/12/10 00:03:04;;;;;;;29.92;15.10;;;-3276.50;98.70;;;;;;5028548;28;20047;-72
2022/12/10 00:05:32;;;;;;;30.50;15.45;;;-3276.50;98.70;;;;;;5027930;28;20116;-72
2022/12/10 00:07:57;;;;;;;31.58;15.48;;;-3276.50;98.70;;;;;;5025589;28;20037;-72
2022/12/10 00:10:23;;;;;;;30.85;15.90;;;-3276.50;98.70;;;;;;5025689;28;20022;-73
2022/12/10 00:12:49;;;;;;;34.35;15.60;;;-3276.50;98.70;;;;;;5028032;28;20024;-72
2022/12/10 00:15:16;;;;;;;32.92;16.55;;;-3276.50;98.60;;;;;;5025459;28;20148;-72
2022/12/10 00:17:41;;;;;;;35.15;17.30;;;-3276.50;98.70;;;;;;5028529;28;20430;-72
2022/12/10 00:20:07;;;;;;;34.80;17.45;;;-3276.50;98.70;;;;;;5028240;28;20037;-72
2022/12/10 00:22:33;;;;;;;34.22;17.17;;;-3276.50;98.60;;;;;;5028239;28;20053;-72
2022/12/10 00:24:58;;;;;;;34.65;16.77;;;-3276.50;98.60;;;;;;5026943;28;20432;-72
2022/12/10 00:27:23;;;;;;;33.15;15.43;;;-3276.60;98.60;;;;;;5026293;28;20413;-72
2022/12/10 00:29:49;;;;;;;31.48;15.45;;;-3276.50;98.50;;;;;;5023667;28;20025;-72
2022/12/10 00:32:14;;;;;;;32.17;15.07;;;-3276.50;98.50;;;;;;5021469;28;20040;-73
2022/12/10 00:34:40;;;;;;;33.17;16.52;;;-3276.50;98.50;;;;;;5027927;28;20083;-73
2022/12/10 00:37:05;;;;;;;33.65;16.17;;;-3276.50;98.40;;;;;;5026262;28;20322;-72
2022/12/10 00:39:31;;;;;;;35.60;15.98;;;-3276.50;98.30;;;;;;5027947;28;20366;-72
2022/12/10 00:41:56;;;;;;;30.58;14.90;;;-3276.50;98.30;;;;;;5023620;28;20025;-73
2022/12/10 00:44:22;;;;;;;29.90;15.68;;;-3276.50;98.20;;;;;;5023023;28;20438;-73
2022/12/10 00:46:47;;;;;;;30.00;16.13;;;-3276.60;98.20;;;;;;5027600;28;20563;-73
2022/12/10 00:49:13;;;;;;;31.08;16.17;;;-3276.50;98.20;;;;;;5025893;28;20033;-72
2022/12/10 00:51:39;;;;;;;31.40;16.13;;;-3276.60;98.10;;;;;;5027788;28;20318;-73
2022/12/10 00:54:05;;;;;;;29.80;14.75;;;-3276.50;98.00;;;;;;5027854;28;20418;-73
2022/12/10 00:56:32;;;;;;;37.25;16.75;;;-3276.60;98.00;;;;;;5027510;28;20045;-72
2022/12/10 00:58:58;;;;;;;32.95;16.05;;;-3276.60;97.90;;;;;;5020995;28;20104;-72
2022/12/10 01:01:31;;;;;;;27.45;15.30;;;-3276.60;97.90;;;;;;5027594;28;20125;-72
2022/12/10 01:03:59;;;;;;;28.25;13.75;;;-3276.50;97.90;;;;;;5025453;28;20030;-72
2022/12/10 01:06:28;;;;;;;30.20;16.05;;;-3276.50;97.70;;;;;;5025459;28;20354;-72
2022/12/10 01:08:56;;;;;;;28.20;15.20;;;-3276.50;97.70;;;;;;5027102;28;20062;-72
2022/12/10 01:11:27;;;;;;;30.13;15.73;;;-3276.50;97.60;;;;;;5024542;28;20048;-73
2022/12/10 01:13:53;;;;;;;28.17;14.65;;;-3276.50;97.60;;;;;;5017976;28;20076;-73
2022/12/10 01:16:20;;;;;;;28.92;14.75;;;-3276.50;97.50;;;;;;5023430;28;20071;-73
2022/12/10 01:18:46;;;;;;;28.73;14.43;;;-3276.50;97.50;;;;;;5027205;28;20038;-73
2022/12/10 01:21:15;;;;;;;25.95;14.27;;;-3276.50;97.30;;;;;;5029674;28;20029;-73
2022/12/10 01:23:43;;;;;;;27.23;14.32;;;-3276.50;97.30;;;;;;5027338;28;20080;-73
2022/12/10 01:26:11;;;;;;;30.15;14.98;;;-3276.60;97.20;;;;;;5026079;28;20307;-72
2022/12/10 01:28:38;;;;;;;27.67;14.13;;;-3276.50;97.20;;;;;;5021491;28;20037;-73
2022/12/10 01:31:07;;;;;;;29.63;15.07;;;-3276.60;97.10;;;;;;5026881;28;20389;-73
2022/12/10 01:33:34;;;;;;;27.58;15.30;;;-3276.50;97.10;;;;;;5016315;28;20025;-73
2022/12/10 01:36:12;;;;;;;27.35;14.35;;;-3276.50;97.10;;;;;;5025161;28;20079;-73
2022/12/10 01:38:38;;;;;;;27.63;15.63;;;-3276.60;97.10;;;;;;5026216;28;20061;-73
2022/12/10 01:41:04;;;;;;;28.10;14.48;;;-3276.50;97.00;;;;;;5025590;28;20503;-73
2022/12/10 01:43:51;;;;;;;30.60;15.23;;;-3276.50;97.00;;;;;;5021851;28;20315;-73
2022/12/10 01:46:17;;;;;;;27.00;14.35;;;-3276.60;97.10;;;;;;5018440;28;20025;-73
2022/12/10 01:48:43;;;;;;;26.85;14.75;;;-3276.50;97.10;;;;;;5025748;28;20033;-73
2022/12/10 01:51:10;;;;;;;23.73;13.93;;;-3276.60;97.10;;;;;;5024211;28;20109;-73
2022/12/10 01:53:36;;;;;;;26.27;14.10;;;-3276.60;97.00;;;;;;5025313;28;20318;-73
2022/12/10 01:56:01;;;;;;;25.48;13.23;;;-3276.60;97.00;;;;;;5024869;28;20094;-73
2022/12/10 01:58:27;;;;;;;21.30;12.00;;;-3276.50;96.90;;;;;;5023814;28;20109;-73
2022/12/10 02:01:08;;;;;;;24.52;12.02;;;-3276.50;96.70;;;;;;5025249;28;20113;-73
2022/12/10 02:03:57;;;;;;;21.27;11.55;;;-3276.60;96.60;;;;;;5025272;28;20030;-73
2022/12/10 02:06:53;;;;;;;22.08;11.30;;;-3276.60;96.40;;;;;;5024351;28;20025;-74
2022/12/10 02:09:37;;;;;;;24.02;12.40;;;-3276.60;96.30;;;;;;5036327;28;20462;-74
2022/12/10 02:12:23;;;;;;;25.67;13.93;;;-3276.50;96.20;;;;;;5023940;28;20083;-73
2022/12/10 02:15:14;;;;;;;19.17;11.05;;;-3276.60;96.30;;;;;;5027898;28;20032;-73
2022/12/10 02:17:42;;;;;;;;;;;-3276.50;96.10;;;;;;5026564;28;20074;-72
2022/12/10 02:20:32;;;;;;;19.30;9.95;;;-3276.60;96.20;;;;;;5025826;28;20282;-73
2022/12/10 02:23:08;;;;;;;18.73;10.65;;;-3276.50;96.10;;;;;;5025543;28;20049;-73
2022/12/10 02:26:01;;;;;;;20.63;10.65;;;-3276.50;95.90;;;;;;5020096;28;20403;-73
2022/12/10 02:28:54;;;;;;;16.25;8.35;;;-3276.50;96.00;;;;;;5017342;28;20025;-73
2022/12/10 02:31:25;;;;;;;15.65;7.53;;;-3276.50;95.00;;;;;;5023623;28;20032;-73
2022/12/10 02:33:56;;;;;;;17.15;8.55;;;-3276.50;94.80;;;;;;5024527;28;20033;-73
2022/12/10 02:36:25;;;;;;;14.80;7.72;;;-3276.50;94.70;;;;;;5026566;28;20056;-73
2022/12/10 02:38:52;;;;;;;17.00;7.97;;;-3276.50;94.40;;;;;;5025487;28;20053;-73
2022/12/10 02:41:32;;;;;;;18.60;9.70;;;-3276.50;94.40;;;;;;5025018;28;20025;-73
2022/12/10 02:44:01;;;;;;;16.77;8.73;;;-3276.50;94.70;;;;;;5024595;28;20074;-73
2022/12/10 02:46:29;;;;;;;15.45;8.48;;;-3276.50;94.80;;;;;;5024580;28;20965;-72
2022/12/10 02:48:56;;;;;;;16.30;8.73;;;-3276.60;94.80;;;;;;5024689;28;20565;-73
2022/12/10 02:51:21;;;;;;;18.98;8.98;;;-3276.50;94.90;;;;;;5018381;28;20493;-73
2022/12/10 02:53:47;;;;;;;18.02;9.70;;;-3276.60;95.10;;;;;;5026446;28;20034;-73
2022/12/10 02:56:36;;;;;;;16.88;9.63;;;-3276.60;95.20;;;;;;5025790;28;20397;-73
2022/12/10 02:59:09;;;;;;;18.50;9.20;;;-3276.50;95.30;;;;;;5022349;28;20060;-73
2022/12/10 03:01:58;;;;;;;17.08;8.40;;;-3276.50;95.30;;;;;;5023107;28;20537;-73
2022/12/10 03:04:51;;;;;;;18.95;9.57;;;-3276.50;94.90;;;;;;5026052;28;20021;-73
2022/12/10 03:07:34;;;;;;;14.50;7.93;;;-3276.50;94.90;;;;;;5025120;28;20037;-72
2022/12/10 03:10:21;;;;;;;16.70;8.10;;;-3276.50;94.80;;;;;;5023921;28;20032;-73
2022/12/10 03:12:50;;;;;;;15.57;8.10;;;-3276.50;94.70;;;;;;5025325;28;20053;-73
2022/12/10 03:15:17;;;;;;;15.90;8.77;;;-3276.50;94.70;;;;;;5021239;28;20446;-73
2022/12/10 03:17:45;;;;;;;18.52;8.57;;;-3276.50;94.80;;;;;;5024610;28;20094;-73
2022/12/10 03:20:13;;;;;;;16.35;8.88;;;-3276.50;94.90;;;;;;5024887;28;20459;-72
2022/12/10 03:22:41;;;;;;;17.95;9.38;;;-3276.50;94.70;;;;;;5023528;28;20045;-73
2022/12/10 03:25:09;;;;;;;17.65;9.02;;;-3276.50;94.80;;;;;;5017911;28;20120;-73
2022/12/10 03:27:39;;;;;;;16.50;8.40;;;-3276.50;94.80;;;;;;5024949;28;20053;-73
2022/12/10 03:30:05;;;;;;;19.00;9.93;;;-3276.50;94.90;;;;;;5028234;28;20155;-73
2022/12/10 03:32:31;;;;;;;17.67;9.32;;;-3276.50;94.90;;;;;;5024865;28;20334;-73
2022/12/10 03:34:59;;;;;;;16.92;8.88;;;-3276.50;95.00;;;;;;5029181;28;20029;-74
2022/12/10 03:37:26;;;;;;;17.58;9.80;;;-3276.50;95.20;;;;;;5029012;28;20366;-73
2022/12/10 03:39:52;;;;;;;16.10;8.65;;;-3276.50;95.30;;;;;;5029242;28;20094;-73
2022/12/10 03:42:18;;;;;;;19.20;9.98;;;-3276.50;94.90;;;;;;5027935;28;20514;-73
2022/12/10 03:44:43;;;;;;;18.85;10.13;;;-3276.50;94.60;;;;;;5021465;28;20028;-74
2022/12/10 03:47:14;;;;;;;17.00;9.63;;;-3276.50;94.30;;;;;;5028999;28;20399;-73
2022/12/10 03:49:40;;;;;;;21.35;9.02;;;-3276.60;94.30;;;;;;5026220;28;20467;-73
2022/12/10 03:52:06;;;;;;;17.80;9.30;;;-3276.60;94.10;;;;;;5028882;28;20033;-73
2022/12/10 03:54:31;;;;;;;22.98;10.95;;;-3276.50;93.80;;;;;;5027583;28;20314;-73
2022/12/10 03:56:57;;;;;;;24.20;12.90;;;-3276.60;93.80;;;;;;5027663;28;20018;-73
2022/12/10 03:59:22;;;;;;;25.13;12.02;;;-3276.50;93.90;;;;;;5026097;28;20489;-73
2022/12/10 04:01:48;;;;;;;22.23;11.35;;;-3276.50;93.90;;;;;;5024846;28;20074;-73
2022/12/10 04:04:13;;;;;;;20.80;11.40;;;-3276.60;94.00;;;;;;5026680;28;20079;-73
2022/12/10 04:06:40;;;;;;;19.70;11.82;;;-3276.60;94.20;;;;;;5025303;28;20026;-73
2022/12/10 04:09:06;;;;;;;17.35;9.55;;;-3276.60;94.40;;;;;;5028512;28;20420;-73
2022/12/10 04:11:31;;;;;;;19.58;10.52;;;-3276.60;94.60;;;;;;5027768;28;20030;-73
2022/12/10 04:16:41;;;;;;;17.48;9.05;;;-3276.50;94.60;;;;;;5027980;28;20113;-73
2022/12/10 04:19:10;;;;;;;17.00;9.02;;;-3276.60;94.80;;;;;;5027850;28;20466;-73
2022/12/10 04:27:16;;;;;;;18.98;9.38;;;-3276.50;94.40;;;;;;5023446;28;20040;-73
2022/12/10 04:29:41;;;;;;;17.20;9.68;;;-3276.60;94.40;;;;;;5021474;28;20068;-72
2022/12/10 04:32:07;;;;;;;18.75;10.23;;;-3276.50;94.30;;;;;;5024213;28;20065;-73
2022/12/10 04:34:33;;;;;;;17.00;9.25;;;-3276.60;94.50;;;;;;5027121;28;20037;-73
2022/12/10 04:36:59;;;;;;;18.10;10.05;;;-3276.60;94.80;;;;;;5026671;28;20371;-73
2022/12/10 04:39:25;;;;;;;21.15;10.80;;;-3276.60;94.90;;;;;;5024762;28;20041;-73
2022/12/10 04:41:51;;;;;;;16.45;9.70;;;-3276.60;95.10;;;;;;5025401;28;20167;-73
2022/12/10 04:44:17;;;;;;;19.30;10.35;;;-3276.50;95.20;;;;;;5026054;28;20496;-73
2022/12/10 04:46:43;;;;;;;18.95;10.02;;;-3276.50;95.30;;;;;;5027614;28;20026;-74
2022/12/10 04:49:09;;;;;;;20.67;10.35;;;-3276.50;95.20;;;;;;5035674;28;20307;-73
2022/12/10 04:51:34;;;;;;;17.70;9.15;;;-3276.50;95.30;;;;;;5026454;28;20134;-73
2022/12/10 04:54:00;;;;;;;17.45;9.00;;;-3276.50;95.10;;;;;;5025446;28;20044;-73
2022/12/10 04:56:26;;;;;;;18.23;9.70;;;-3276.40;94.50;;;;;;5025029;28;20044;-73
2022/12/10 04:58:51;;;;;;;17.23;8.63;;;-3276.50;94.20;;;;;;5021167;28;20476;-73
2022/12/10 05:01:18;;;;;;;19.45;9.93;;;-3276.50;94.00;;;;;;5027202;28;20105;-73
2022/12/10 05:03:44;;;;;;;19.05;10.32;;;-3276.50;93.90;;;;;;5026867;28;20399;-73
2022/12/10 05:06:12;;;;;;;20.00;10.88;;;-3276.50;94.00;;;;;;5034287;28;20177;-73
2022/12/10 05:08:38;;;;;;;17.17;9.02;;;-3276.50;94.10;;;;;;5027223;28;20025;-72
2022/12/10 05:11:12;;;;;;;20.08;9.40;;;-3276.50;94.10;;;;;;5033669;28;20333;-73
2022/12/10 05:13:39;;;;;;;18.08;9.25;;;-3276.50;94.00;;;;;;5022611;28;20033;-73
2022/12/10 05:16:06;;;;;;;21.48;10.82;;;-3276.50;94.10;;;;;;5014439;28;20029;-73
2022/12/10 05:18:32;;;;;;;18.85;10.25;;;-3276.50;94.30;;;;;;5025199;28;20362;-73
2022/12/10 05:20:59;;;;;;;17.58;10.35;;;-3276.50;94.10;;;;;;5027473;28;20037;-73
2022/12/10 05:23:27;;;;;;;19.48;10.10;;;-3276.50;94.20;;;;;;5027368;28;20048;-73
2022/12/10 05:26:06;;;;;;;19.63;10.35;;;-3276.50;94.30;;;;;;5032744;28;20078;-73
2022/12/10 05:28:34;;;;;;;15.63;8.85;;;-3276.40;94.20;;;;;;5026344;28;20025;-74
2022/12/10 05:31:00;;;;;;;20.35;9.25;;;-3276.40;93.70;;;;;;5024051;28;20032;-74
2022/12/10 05:33:26;;;;;;;17.67;9.23;;;-3276.40;93.50;;;;;;5018578;28;20022;-74
2022/12/10 05:35:56;;;;;;;16.67;9.40;;;-3276.40;93.50;;;;;;5024442;28;20431;-74
2022/12/10 05:38:23;;;;;;;18.60;9.63;;;-3276.50;93.70;;;;;;5035295;28;20037;-74
2022/12/10 05:40:49;;;;;;;19.08;10.57;;;-3276.50;93.80;;;;;;5024828;28;20064;-74
2022/12/10 05:43:14;;;;;;;19.15;10.95;;;-3276.50;93.90;;;;;;5027170;28;20463;-75
2022/12/10 05:45:40;;;;;;;17.25;9.27;;;-3276.50;94.10;;;;;;5020658;28;20036;-74
2022/12/10 05:48:06;;;;;;;20.25;10.45;;;-3276.50;94.30;;;;;;5020466;28;20422;-74
2022/12/10 05:50:32;;;;;;;18.30;9.63;;;-3276.50;94.30;;;;;;5024780;28;20554;-74
2022/12/10 05:52:58;;;;;;;17.95;9.32;;;-3276.50;94.30;;;;;;5023618;28;20053;-74
2022/12/10 05:55:24;;;;;;;19.33;10.05;;;-3276.40;94.00;;;;;;5022225;28;20052;-74
2022/12/10 05:57:50;;;;;;;18.23;9.35;;;-3276.40;93.90;;;;;;5024655;28;20136;-74
2022/12/10 06:00:15;;;;;;;17.60;8.80;;;-3276.50;94.00;;;;;;5025139;28;20135;-74
2022/12/10 06:02:41;;;;;;;17.17;9.10;;;-3276.50;93.90;;;;;;5026403;28;20097;-74
2022/12/10 06:05:07;;;;;;;15.85;8.98;;;-3276.50;93.80;;;;;;5019332;28;20038;-74
2022/12/10 06:07:32;;;;;;;18.85;8.70;;;-3276.40;93.80;;;;;;5022550;28;20956;-74
2022/12/10 06:09:57;;;;;;;21.17;9.95;;;-3276.40;93.80;;;;;;5026920;28;20112;-74
2022/12/10 06:12:23;;;;;;;17.33;10.23;;;-3276.40;94.00;;;;;;5025853;28;20025;-74
2022/12/10 06:14:48;;;;;;;15.35;9.20;;;-3276.40;93.90;;;;;;5021182;28;20109;-74
2022/12/10 06:17:14;;;;;;;17.95;10.15;;;-3276.40;93.80;;;;;;5022067;28;20048;-74
2022/12/10 06:19:39;;;;;;;18.40;9.23;;;-3276.40;94.00;;;;;;5025916;28;20132;-74
2022/12/10 06:22:05;;;;;;;16.48;9.07;;;-3276.40;94.00;;;;;;5023390;28;20052;-74
2022/12/10 06:24:30;;;;;;;19.35;9.23;;;-3276.40;94.10;;;;;;5026328;28;20163;-74
2022/12/10 06:26:56;;;;;;;15.65;7.93;;;-3276.40;93.90;;;;;;5023932;28;20310;-74
2022/12/10 06:29:21;;;;;;;18.30;8.90;;;-3276.30;93.30;;;;;;5020580;28;20029;-74
2022/12/10 06:31:47;;;;;;;14.43;7.90;;;-3276.30;92.90;;;;;;5025115;28;20021;-74
2022/12/10 06:34:12;;;;;;;15.23;7.90;;;-3276.30;92.80;;;;;;5016509;28;20037;-74
2022/12/10 06:36:38;;;;;;;17.70;8.32;;;-3276.30;92.90;;;;;;5024268;28;20062;-74
2022/12/10 06:39:03;;;;;;;16.33;8.25;;;-3276.30;92.90;;;;;;5023609;28;20042;-74
2022/12/10 06:41:29;;;;;;;17.73;9.50;;;-3276.30;93.10;;;;;;5023837;28;20310;-74
2022/12/10 06:43:58;;;;;;;17.75;8.68;;;-3276.30;93.20;;;;;;5024952;28;20697;-75
2022/12/10 06:46:25;;;;;;;14.98;8.05;;;-3276.30;93.20;;;;;;5025842;28;20458;-75
2022/12/10 06:48:50;;;;;;;16.90;9.32;;;-3276.30;93.10;;;;;;5027648;28;20120;-74
2022/12/10 06:51:17;;;;;;;16.98;8.70;;;-3276.30;93.30;;;;;;5027840;28;20048;-74
2022/12/10 06:53:43;;;;;;;18.13;9.07;;;-3276.30;93.40;;;;;;5021457;28;20758;-74
2022/12/10 06:56:18;;;;;;;17.00;9.02;;;-3276.30;93.60;;;;;;5019841;28;20032;-75
2022/12/10 06:58:44;;;;;;;16.38;8.88;;;-3276.30;93.70;;;;;;5025552;28;20029;-74
2022/12/10 07:01:12;;;;;;;20.02;10.13;;;-3276.30;93.80;;;;;;5029495;28;20036;-74
2022/12/10 07:03:38;;;;;;;20.25;10.60;;;-3276.30;94.00;;;;;;5029048;28;20055;-74
2022/12/10 07:06:06;;;;;;;20.20;9.38;;;-3276.30;94.00;;;;;;5024621;28;20026;-74
2022/12/10 07:08:31;;;;;;;20.00;10.18;;;-3276.30;94.00;;;;;;5027535;28;20030;-74
2022/12/10 07:10:58;;;;;;;16.73;8.80;;;-3276.30;93.90;;;;;;5028950;28;20028;-74
2022/12/10 07:13:24;;;;;;;19.40;10.68;;;-3276.30;93.70;;;;;;5027405;28;20033;-74
2022/12/10 07:15:49;;;;;;;17.85;9.52;;;-3276.30;93.80;;;;;;5020454;28;20021;-74
2022/12/10 07:18:15;;;;;;;18.58;9.30;;;-3276.30;93.90;;;;;;5029736;28;20067;-74
2022/12/10 07:20:41;;;;;;;18.55;9.32;;;-3276.30;93.70;;;;;;5028600;28;20355;-75
2022/12/10 07:23:06;;;;;;;14.93;7.78;;;-3276.30;93.70;;;;;;5030167;28;20053;-74
2022/12/10 07:25:32;;;;;;;16.95;9.23;;;-3276.30;93.80;;;;;;5028708;28;20091;-74
2022/12/10 07:27:58;;;;;;;20.10;9.93;;;-3276.30;93.80;;;;;;5026901;28;20041;-74
2022/12/10 07:30:24;;;;;;;16.92;9.70;;;-3276.30;93.80;;;;;;5024351;28;20431;-74
2022/12/10 07:32:49;;;;;;;17.70;9.13;;;-3276.20;93.90;;;;;;5022546;28;20596;-74
2022/12/10 07:35:15;;;;;;;16.25;9.27;;;-3276.20;93.80;;;;;;5025475;28;20092;-75
2022/12/10 07:37:40;;;;;;;15.45;8.65;;;-3276.30;93.90;;;;;;5029713;28;20538;-74
2022/12/10 07:40:06;;;;;;;15.70;8.25;;;-3276.20;93.80;;;;;;5028338;28;20366;-74
2022/12/10 07:42:32;;;;;;;15.63;7.65;;;-3276.20;93.40;;;;;;5028577;28;20104;-74
2022/12/10 07:44:57;;;;;;;16.98;9.07;;;-3276.20;93.30;;;;;;5017767;28;20568;-74
2022/12/10 07:47:23;;;;;;;15.45;7.57;;;-3276.20;93.50;;;;;;5026329;28;20074;-75
2022/12/10 07:49:48;;;;;;;18.25;8.43;;;-3276.20;93.60;;;;;;5028122;28;20064;-74
2022/12/10 07:52:13;;;;;;;16.88;7.68;;;-3276.20;93.70;;;;;;5030179;28;20026;-74
2022/12/10 07:54:39;;;;;;;18.88;8.05;;;-3276.20;93.70;;;;;;5025395;28;20285;-74
2022/12/10 07:57:04;;;;;;;14.68;7.35;;;-3276.20;93.70;;;;;;5028355;28;20057;-75
2022/12/10 07:59:30;;;;;;;15.80;7.65;;;-3276.10;93.20;;;;;;5025841;28;20143;-74
2022/12/10 08:01:57;;;;;;;15.02;7.80;;;-3276.20;93.40;;;;;;5028297;28;20079;-74
2022/12/10 08:04:22;;;;;;;16.05;6.78;;;-3276.20;93.50;;;;;;5020428;28;20030;-74
2022/12/10 08:06:48;;;;;;;13.65;7.47;;;-3276.10;93.40;;;;;;5028967;28;20166;-74
2022/12/10 08:09:14;;;;;;;13.90;7.43;;;-3276.20;93.40;;;;;;5026040;28;20275;-74
2022/12/10 08:11:39;;;;;;;19.15;8.18;;;-3276.20;93.30;;;;;;5017877;28;20150;-74
2022/12/10 08:14:04;;;;;;;15.23;7.65;;;-3276.20;93.30;;;;;;5027297;28;20480;-73
2022/12/10 08:16:31;;;;;;;14.05;7.20;;;-3276.10;93.20;;;;;;5020383;28;20033;-74
2022/12/10 08:18:58;;;;;;;15.18;7.53;;;-3276.00;92.50;;;;;;5027463;28;20041;-74
2022/12/10 08:21:26;;;;;;;14.48;6.50;;;-3276.00;92.70;;;;;;5018322;28;20059;-74
2022/12/10 08:23:53;;;;;;;14.45;6.55;;;-3276.10;92.80;;;;;;5025952;28;20049;-74
2022/12/10 08:26:22;;;;;;;13.38;7.15;;;-3276.00;92.40;;;;;;5027601;28;20021;-74
2022/12/10 08:28:48;;;;;;;13.07;6.75;;;-3276.10;92.50;;;;;;5024799;28;20801;-74
2022/12/10 08:31:17;;;;;;;14.57;6.78;;;-3276.10;92.70;;;;;;5028125;28;20107;-74
2022/12/10 08:33:42;;;;;;;13.95;6.72;;;-3276.10;92.90;;;;;;5025480;28;20170;-74
2022/12/10 08:36:12;;;;;;;13.70;7.22;;;-3276.10;92.90;;;;;;5028544;28;20121;-74
2022/12/10 08:38:38;;;;;;;17.20;8.38;;;-3276.10;93.20;;;;;;5020473;28;20031;-74
2022/12/10 08:41:12;;;;;;;15.82;7.72;;;-3276.20;93.20;;;;;;5025508;28;20105;-74
2022/12/10 08:43:38;;;;;;;17.00;9.13;;;-3276.20;93.20;;;;;;5037221;28;20038;-74
2022/12/10 08:46:04;;;;;;;14.30;7.57;;;-3276.20;93.30;;;;;;5021564;28;20405;-74
2022/12/10 08:48:30;;;;;;;14.02;7.20;;;-3276.20;93.20;;;;;;5028808;28;20100;-74
2022/12/10 08:50:59;;;;;;;16.33;7.43;;;-3276.20;92.90;;;;;;5028852;28;20021;-74
2022/12/10 08:53:24;;;;;;;11.52;6.38;;;-3276.20;92.60;;;;;;5025750;28;20047;-75
2022/12/10 08:55:51;;;;;;;14.75;7.25;;;-3276.10;92.30;;;;;;5022108;28;20112;-74
2022/12/10 08:58:16;;;;;;;13.02;6.38;;;-3276.10;92.30;;;;;;5026399;28;20116;-73
2022/12/10 09:00:43;;;;;;;17.15;7.25;;;-3276.20;92.50;;;;;;5026789;28;20029;-73
2022/12/10 09:03:09;;;;;;;15.05;8.10;;;-3276.20;92.40;;;;;;5027183;28;20103;-73
2022/12/10 09:05:34;;;;;;;15.13;7.65;;;-3276.20;92.70;;;;;;5019668;28;20022;-72
2022/12/10 09:08:00;;;;;;;15.10;8.02;;;-3276.20;92.70;;;;;;5027521;28;20377;-72
2022/12/10 09:10:25;;;;;;;15.02;7.82;;;-3276.20;92.70;;;;;;5018366;28;20197;-74
2022/12/10 09:12:51;;;;;;;17.33;9.05;;;-3276.20;92.70;;;;;;5023183;28;20040;-72
2022/12/10 09:15:16;;;;;;;18.20;8.85;;;-3276.20;92.80;;;;;;5022779;28;20034;-72
2022/12/10 09:17:42;;;;;;;15.35;8.82;;;-3276.30;93.00;;;;;;5026480;28;20484;-72
2022/12/10 09:20:08;;;;;;;16.77;8.60;;;-3276.30;93.10;;;;;;5025075;28;20033;-72
2022/12/10 09:22:36;;;;;;;17.02;8.25;;;-3276.30;93.00;;;;;;5019643;28;20437;-73
2022/12/10 09:25:05;;;;;;;17.33;8.10;;;-3276.30;92.80;;;;;;5026887;28;20062;-72
2022/12/10 09:27:32;;;;;;;15.77;7.95;;;-3276.30;92.50;;;;;;5041289;28;20029;-73
2022/12/10 09:29:57;;;;;;;18.15;8.68;;;-3276.30;92.40;;;;;;5024076;28;20135;-73
2022/12/10 09:32:23;;;;;;;14.57;7.50;;;-3276.30;92.40;;;;;;5023252;28;20399;-72
2022/12/10 09:34:52;;;;;;;12.90;7.20;;;-3276.30;92.60;;;;;;5026337;28;20036;-73
2022/12/10 09:37:17;;;;;;;15.73;6.68;;;-3276.30;92.40;;;;;;5025587;28;20463;-73
2022/12/10 09:39:43;;;;;;;13.20;7.28;;;-3276.20;91.70;;;;;;5023532;28;20033;-73
2022/12/10 09:42:27;;;;;;;13.95;6.72;;;-3276.30;91.80;;;;;;5026116;28;20442;-72
2022/12/10 09:45:17;;;;;;;13.48;6.88;;;-3276.30;91.90;;;;;;5023359;28;20082;-73
2022/12/10 09:48:03;;;;;;;12.38;6.80;;;-3276.40;92.10;;;;;;5021255;28;20087;-72
2022/12/10 09:50:48;;;;;;;14.52;6.60;;;-3276.30;92.10;;;;;;5028552;28;20472;-72
2022/12/10 09:53:17;;;;;;;13.02;6.78;;;-3276.30;91.70;;;;;;5026929;28;20076;-73
2022/12/10 09:55:46;;;;;;;13.98;6.93;;;-3276.30;91.10;;;;;;5026261;28;20145;-72
2022/12/10 09:58:19;;;;;;;13.05;7.10;;;-3276.30;91.70;;;;;;5026095;28;20059;-72
2022/12/10 10:00:49;;;;;;;12.95;6.57;;;-3276.30;91.70;;;;;;5024109;28;20127;-73
2022/12/10 10:03:16;;;;;;;11.32;6.63;;;-3276.20;91.00;;;;;;5025624;28;20095;-73
2022/12/10 10:05:49;;;;;;;11.55;6.57;;;-3276.20;90.70;;;;;;5024314;28;20414;-72
2022/12/10 10:08:28;;;;;;;12.52;6.38;;;-3276.20;90.70;;;;;;5027011;28;20101;-73
2022/12/10 10:10:53;;;;;;;14.35;6.85;;;-3276.30;90.80;;;;;;5013726;28;20029;-73
2022/12/10 10:13:36;;;;;;;13.07;7.43;;;-3276.30;90.90;;;;;;5024745;28;20152;-73
2022/12/10 10:16:13;;;;;;;15.73;7.07;;;-3276.30;90.80;;;;;;5025673;28;20033;-73
2022/12/10 10:18:43;;;;;;;13.95;7.75;;;-3276.20;90.60;;;;;;5025533;28;20055;-73
2022/12/10 10:21:23;;;;;;;15.75;7.60;;;-3276.30;90.80;;;;;;5023104;28;20037;-73
2022/12/10 10:23:49;;;;;;;15.00;7.47;;;-3276.30;91.10;;;;;;5026290;28;20136;-74
2022/12/10 10:26:15;;;;;;;15.82;7.43;;;-3276.40;91.30;;;;;;5025207;28;20112;-73
2022/12/10 10:28:41;;;;;;;14.70;7.35;;;-3276.40;91.40;;;;;;5026748;28;20135;-73
2022/12/10 10:31:20;;;;;;;13.88;7.32;;;-3276.40;91.00;;;;;;5025598;28;20171;-73
2022/12/10 10:34:11;;;;;;;12.45;6.35;;;-3276.40;90.70;;;;;;5029050;28;20104;-73
2022/12/10 10:36:38;;;;;;;15.00;7.55;;;-3276.30;91.00;;;;;;5024576;28;20100;-74
2022/12/10 10:39:08;;;;;;;13.50;6.80;;;-3276.30;90.80;;;;;;5026954;28;20044;-73
2022/12/10 10:41:39;;;;;;;10.20;6.40;;;-3276.40;91.00;;;;;;5029217;28;20040;-73
2022/12/10 10:44:12;;;;;;;15.43;7.38;;;-3276.40;91.00;;;;;;5026058;28;20017;-73
2022/12/10 10:46:39;;;;;;;16.77;7.82;;;-3276.40;91.20;;;;;;5029404;28;20394;-73
2022/12/10 10:49:22;;;;;;;15.65;7.43;;;-3276.40;91.50;;;;;;5029501;28;20330;-73
2022/12/10 10:51:47;;;;;;;14.48;7.35;;;-3276.40;91.90;;;;;;5031880;28;20061;-73
2022/12/10 10:54:37;;;;;;;17.40;7.25;;;-3276.50;91.90;;;;;;5021350;28;20066;-73
2022/12/10 10:57:10;;;;;;;12.13;6.55;;;-3276.40;91.30;;;;;;5031256;28;20338;-73
2022/12/10 10:59:37;;;;;;;15.07;7.05;;;-3276.40;90.80;;;;;;5031182;28;20026;-73
2022/12/10 11:02:29;;;;;;;13.93;7.32;;;-3276.40;90.60;;;;;;5020289;28;20095;-73
2022/12/10 11:04:58;;;;;;;12.60;6.40;;;-3276.40;90.40;;;;;;5024586;28;20450;-73
2022/12/10 11:07:39;;;;;;;17.33;8.05;;;-3276.50;90.80;;;;;;5023849;28;20452;-73
2022/12/10 11:10:22;;;;;;;14.32;7.35;;;-3276.50;91.30;;;;;;5024193;28;20033;-73
2022/12/10 11:13:03;;;;;;;15.15;7.25;;;-3276.40;91.20;;;;;;5027729;28;20061;-73
2022/12/10 11:15:41;;;;;;;14.32;6.88;;;-3276.40;91.00;;;;;;5026450;28;20338;-73
2022/12/10 11:18:34;;;;;;;13.30;6.68;;;-3276.50;91.40;;;;;;5033821;28;20117;-73
2022/12/10 11:21:12;;;;;;;15.80;6.72;;;-3276.40;91.30;;;;;;5027240;28;20473;-74
2022/12/10 11:23:40;;;;;;;13.70;6.38;;;-3276.50;91.20;;;;;;5026897;28;20419;-73
2022/12/10 11:26:36;;;;;;;12.25;6.88;;;-3276.40;90.70;;;;;;5028962;28;20120;-73
2022/12/10 11:29:16;;;;;;;12.80;6.63;;;-3276.40;90.70;;;;;;5039635;28;20064;-73
2022/12/10 11:31:41;;;;;;;15.82;7.35;;;-3276.50;91.30;;;;;;5028508;28;20025;-73
2022/12/10 11:34:29;;;;;;;12.65;6.65;;;-3276.50;91.10;;;;;;5019620;28;20036;-73
2022/12/10 11:37:29;;;;;;;13.43;7.05;;;-3276.40;90.80;;;;;;5027371;28;20025;-73
2022/12/10 11:40:29;;;;;;;12.70;6.38;;;-3276.40;91.30;;;;;;5017477;28;20173;-73
2022/12/10 11:43:17;;;;;;;14.50;6.40;;;-3276.50;90.90;;;;;;5038654;28;20029;-74
2022/12/10 11:46:02;;;;;;;14.52;7.25;;;-3276.50;90.50;;;;;;5025041;28;20089;-73
2022/12/10 11:49:05;;;;;;;13.82;7.75;;;-3276.50;90.80;;;;;;5029738;28;20029;-73
2022/12/10 11:52:00;;;;;;;18.55;7.82;;;-3276.50;91.00;;;;;;5029584;28;20029;-73
2022/12/10 11:55:03;;;;;;;12.95;7.38;;;-3276.40;91.10;;;;;;5024435;28;20036;-73
2022/12/10 11:57:54;;;;;;;14.07;6.82;;;-3276.40;91.30;;;;;;5028445;28;20017;-74
2022/12/10 12:00:27;;;;;;;13.48;6.82;;;-3276.30;91.10;;;;;;5020452;28;20109;-73
2022/12/10 12:03:28;;;;;;;12.15;7.00;;;-3276.30;90.80;;;;;;5026616;28;20030;-73
2022/12/10 12:06:11;;;;;;;14.25;6.75;;;-3276.30;90.40;;;;;;5023673;28;20037;-73
2022/12/10 12:08:52;;;;;;;15.80;7.90;;;-3276.30;90.40;;;;;;5027133;28;20064;-74
2022/12/10 12:11:48;;;;;;;15.23;6.95;;;-3276.30;90.80;;;;;;5025972;28;20500;-74
2022/12/10 12:14:20;;;;;;;16.20;8.02;;;-3276.40;91.40;;;;;;5024840;28;20438;-74
2022/12/10 12:17:25;;;;;;;14.38;7.22;;;-3276.40;91.50;;;;;;5023084;28;20052;-73
2022/12/10 12:19:58;;;;;;;12.45;6.43;;;-3276.40;90.70;;;;;;5023175;28;20048;-73
2022/12/10 12:22:38;;;;;;;15.48;7.85;;;-3276.40;90.70;;;;;;5028288;28;20049;-73
2022/12/10 12:25:16;;;;;;;12.63;7.63;;;-3276.40;90.40;;;;;;5019844;28;20081;-74
2022/12/10 12:27:48;;;;;;;14.35;7.82;;;-3276.50;91.00;;;;;;5024822;28;20701;-73
2022/12/10 12:30:22;;;;;;;14.05;8.20;;;-3276.40;91.00;;;;;;5026664;28;20239;-73